CheckWX is a tool to help pilots better visualize weather data.  It is not intended as a substitute for an official pre-flight weather briefing.

13:20:46 UTC

LTBS METAR
Dalaman International Airport
Dalaman, Turkey
Current

31 mins ago

LTBS 131250Z 27004KT 9999 FEW030 BKN180 25/10 Q1012 NOSIG RMK RWY19 24005KT
Observed
Nov-13 @ 12:50 UTC
Wind
  • 270° at 4 KTS
Visibility
10,000+ meters
Flight Rules
VFR
Cloud Levels
  • Few at 3,000' AGL
  • Broken at 18,000' AGL
Temperature
25°C / 77°F
Dewpoint
10°C / 50°F
Humidity
39%
Altimeter
29.88" Hg
Pressure
1011.92 hPa
Previous

1 hour ago

LTBS 131220Z 26004KT 9999 FEW030 BKN180 26/08 Q1012 NOSIG RMK RWY19 26004KT 220V290
Observed
Nov-13 @ 12:20 UTC
Wind
  • 260° at 4 KTS
Visibility
10,000+ meters
Flight Rules
VFR
Cloud Levels
  • Few at 3,000' AGL
  • Broken at 18,000' AGL
Temperature
26°C / 79°F
Dewpoint
C / 46°F
Humidity
32%
Altimeter
29.88" Hg
Pressure
1011.92 hPa
Previous

2 hours ago

LTBS 131150Z 27003KT 210V340 9999 FEW030 BKN180 26/08 Q1012 NOSIG RMK RWY19 30003KT 260V330
Observed
Nov-13 @ 11:50 UTC
Wind
  • 270° at 3 KTS
Visibility
10,000+ meters
Flight Rules
VFR
Cloud Levels
  • Few at 3,000' AGL
  • Broken at 18,000' AGL
Temperature
26°C / 79°F
Dewpoint
C / 46°F
Humidity
32%
Altimeter
29.88" Hg
Pressure
1011.92 hPa